Time;durP1;ratioP1;P1;durP2;ratioP2;P2;SDS_P1;SDS_P2;PMS_P1;PMS_P2;Temp;Humidity;BMP_temperature;BMP_pressure;BME280_temperature;BME280_humidity;BME280_pressure;Samples;Min_cycle;Max_cycle;Signal;HPM_P1;HPM_P2
2023/09/27 00:02:14;;;;;;;20.23;9.38;;;;;;;12.72;100.00;101857.16;5092409;28;20089;-65
2023/09/27 00:04:40;;;;;;;21.27;11.55;;;;;;;12.93;100.00;101860.03;5092656;28;20024;-64
2023/09/27 00:07:05;;;;;;;21.90;11.52;;;;;;;13.00;100.00;101862.75;5092408;28;20024;-65
2023/09/27 00:09:31;;;;;;;22.00;10.80;;;;;;;13.09;100.00;101875.25;5092603;28;20114;-65
2023/09/27 00:11:57;;;;;;;21.58;10.77;;;;;;;13.10;100.00;101874.38;5092373;28;20111;-64
2023/09/27 00:14:23;;;;;;;22.70;10.93;;;;;;;13.13;100.00;101869.09;5092262;28;20432;-64
2023/09/27 00:16:49;;;;;;;21.92;10.95;;;;;;;13.19;100.00;101868.28;5092472;28;20031;-65
2023/09/27 00:19:15;;;;;;;19.92;9.07;;;;;;;13.11;100.00;101860.25;5092293;28;20395;-65
2023/09/27 00:21:41;;;;;;;20.15;8.57;;;;;;;13.07;100.00;101858.41;5092281;28;20067;-66
2023/09/27 00:24:07;;;;;;;19.60;8.60;;;;;;;13.05;100.00;101865.50;5092295;28;20071;-65
2023/09/27 00:26:32;;;;;;;20.00;8.50;;;;;;;13.06;100.00;101867.25;5092280;28;20032;-65
2023/09/27 00:28:57;;;;;;;19.55;8.52;;;;;;;13.12;100.00;101862.03;5092199;28;20485;-65
2023/09/27 00:31:23;;;;;;;19.27;8.38;;;;;;;13.11;100.00;101852.28;5092339;28;20061;-64
2023/09/27 00:33:48;;;;;;;19.83;8.50;;;;;;;13.03;100.00;101856.59;5092089;28;20089;-65
2023/09/27 00:36:13;;;;;;;20.60;8.35;;;;;;;13.01;100.00;101864.56;5092435;28;20024;-66
2023/09/27 00:38:39;;;;;;;19.13;8.27;;;;;;;13.04;100.00;101859.28;5092433;28;20490;-65
2023/09/27 00:41:04;;;;;;;19.17;8.50;;;;;;;13.07;100.00;101861.94;5090842;28;20089;-65
2023/09/27 00:43:34;;;;;;;20.98;9.98;;;;;;;13.18;100.00;101862.06;5092307;28;20039;-61
2023/09/27 00:46:02;;;;;;;19.63;8.90;;;;;;;13.16;100.00;101849.66;5092540;28;20032;-65
2023/09/27 00:48:29;;;;;;;20.05;9.10;;;;;;;13.11;100.00;101854.06;5092142;28;20045;-64
2023/09/27 00:50:55;;;;;;;20.65;9.93;;;;;;;13.10;100.00;101854.91;5091849;28;20119;-79
2023/09/27 00:53:23;;;;;;;18.65;8.00;;;;;;;12.98;100.00;101853.03;5092367;28;20020;-78
2023/09/27 00:55:49;;;;;;;19.88;8.77;;;;;;;12.87;100.00;101843.19;5095618;28;20032;-73
2023/09/27 00:58:18;;;;;;;18.80;8.80;;;;;;;12.83;100.00;101848.44;5095598;28;20032;-77
2023/09/27 01:00:50;;;;;;;19.08;8.32;;;;;;;12.67;100.00;101850.94;5095781;28;20043;-79
2023/09/27 01:03:16;;;;;;;19.80;8.63;;;;;;;12.64;100.00;101853.53;5095440;28;20037;-76
2023/09/27 01:05:42;;;;;;;19.48;8.80;;;;;;;12.60;100.00;101856.16;5095450;28;20282;-79
2023/09/27 01:08:08;;;;;;;21.25;9.40;;;;;;;12.55;100.00;101843.72;5095690;28;20387;-74
2023/09/27 01:10:37;;;;;;;19.58;8.60;;;;;;;12.48;100.00;101846.25;5095320;28;20040;-79
2023/09/27 01:13:03;;;;;;;19.45;8.90;;;;;;;12.45;100.00;101849.78;5095594;28;20060;-75
2023/09/27 01:15:29;;;;;;;19.42;9.23;;;;;;;12.48;100.00;101852.47;5095245;28;20036;-76
2023/09/27 01:17:56;;;;;;;20.40;9.52;;;;;;;12.51;100.00;101849.84;5095266;28;20028;-78
2023/09/27 01:20:22;;;;;;;20.30;9.90;;;;;;;12.50;100.00;101848.06;5095150;28;20028;-79
2023/09/27 01:23:06;;;;;;;21.48;9.88;;;;;;;12.43;100.00;101838.25;5095332;28;20098;-77
2023/09/27 01:25:33;;;;;;;20.98;10.18;;;;;;;12.43;100.00;101830.28;5095095;28;20055;-79
2023/09/27 01:28:01;;;;;;;21.50;11.07;;;;;;;12.36;100.00;101821.38;5094955;28;20487;-74
2023/09/27 01:30:32;;;;;;;21.27;10.65;;;;;;;12.24;100.00;101818.56;5094868;28;20032;-80
2023/09/27 01:33:11;;;;;;;21.15;10.50;;;;;;;12.17;100.00;101817.63;5095072;28;20034;-79
2023/09/27 01:35:41;;;;;;;20.27;9.73;;;;;;;12.12;100.00;101819.28;5094978;28;20028;-79
2023/09/27 01:38:08;;;;;;;21.08;9.48;;;;;;;12.09;100.00;101807.78;5095196;28;20219;-74
2023/09/27 01:40:44;;;;;;;21.42;9.32;;;;;;;11.99;100.00;101804.09;5094997;28;20364;-75
2023/09/27 01:43:11;;;;;;;21.20;9.70;;;;;;;11.96;100.00;101809.38;5089793;28;20028;-79
2023/09/27 01:45:37;;;;;;;22.17;9.77;;;;;;;11.85;100.00;101818.03;5090862;28;20027;-79
2023/09/27 01:48:04;;;;;;;19.75;9.65;;;;;;;11.80;100.00;101811.75;5094637;28;20031;-77
2023/09/27 01:50:32;;;;;;;21.67;9.80;;;;;;;11.82;100.00;101822.38;5094454;28;20020;-79
2023/09/27 01:52:58;;;;;;;20.38;9.70;;;;;;;11.74;100.00;101826.69;5095252;28;20031;-79
2023/09/27 01:55:24;;;;;;;19.58;9.32;;;;;;;11.70;100.00;101828.38;5094450;28;20032;-80
2023/09/27 01:57:49;;;;;;;20.27;9.20;;;;;;;11.69;100.00;101821.28;5094438;28;20471;-77
2023/09/27 02:00:16;;;;;;;20.13;9.65;;;;;;;11.68;100.00;101825.72;5094477;28;20034;-77
2023/09/27 02:02:43;;;;;;;19.67;9.30;;;;;;;11.68;100.00;101824.81;5094427;28;20490;-78
2023/09/27 02:05:09;;;;;;;21.45;9.63;;;;;;;11.68;100.00;101824.81;5089849;28;20378;-79
2023/09/27 02:07:39;;;;;;;20.27;8.90;;;;;;;11.72;100.00;101823.97;5094124;28;20111;-79
2023/09/27 02:10:05;;;;;;;19.77;9.18;;;;;;;11.69;100.00;101823.94;5094172;28;20043;-79
2023/09/27 02:12:31;;;;;;;19.45;8.40;;;;;;;11.62;100.00;101824.72;5094414;28;20379;-80
2023/09/27 02:14:56;;;;;;;19.15;8.52;;;;;;;11.58;100.00;101822.91;5094455;28;20047;-73
2023/09/27 02:17:21;;;;;;;19.13;8.18;;;;;;;11.58;100.00;101812.31;5094350;28;20436;-79
2023/09/27 02:19:47;;;;;;;20.67;8.90;;;;;;;11.55;100.00;101820.19;5092672;28;20032;-78
2023/09/27 02:22:13;;;;;;;20.30;9.00;;;;;;;11.51;100.00;101812.19;5094276;28;20043;-78
2023/09/27 02:24:39;;;;;;;20.55;9.40;;;;;;;11.49;100.00;101819.22;5093707;28;20490;-79
2023/09/27 02:27:04;;;;;;;20.52;9.88;;;;;;;11.49;100.00;101815.72;5094165;28;20024;-60
2023/09/27 02:29:29;;;;;;;19.35;8.52;;;;;;;11.47;100.00;101818.28;5094051;28;20052;-77
2023/09/27 02:31:55;;;;;;;22.60;9.82;;;;;;;11.44;100.00;101820.91;5093717;28;20024;-75
2023/09/27 02:34:20;;;;;;;19.88;9.60;;;;;;;11.44;100.00;101826.19;5092581;28;20047;-79
2023/09/27 02:36:46;;;;;;;19.55;8.60;;;;;;;11.39;100.00;101824.34;5093982;28;20114;-80
2023/09/27 02:39:11;;;;;;;20.55;9.40;;;;;;;11.47;100.00;101820.94;5093678;28;20020;-79
2023/09/27 02:41:36;;;;;;;20.42;9.50;;;;;;;11.43;100.00;101826.16;5093717;28;20437;-79
2023/09/27 02:44:03;;;;;;;19.20;8.80;;;;;;;11.41;100.00;101830.56;5093796;28;20032;-80
2023/09/27 02:46:29;;;;;;;21.20;9.63;;;;;;;11.38;100.00;101815.50;5093423;28;20585;-77
2023/09/27 02:48:54;;;;;;;20.67;9.68;;;;;;;11.38;100.00;101819.94;5093568;28;20099;-79
2023/09/27 02:51:20;;;;;;;20.88;9.90;;;;;;;11.38;100.00;101825.22;5093391;28;20061;-79
2023/09/27 02:53:45;;;;;;;20.02;10.70;;;;;;;11.41;100.00;101825.28;5093318;28;20084;-79
2023/09/27 02:56:11;;;;;;;21.10;10.68;;;;;;;11.38;100.00;101826.09;5093620;28;20031;-79
2023/09/27 02:58:37;;;;;;;21.50;10.38;;;;;;;11.35;100.00;101823.41;5093364;28;20030;-78
2023/09/27 03:01:02;;;;;;;21.45;10.88;;;;;;;11.46;100.00;101821.84;5091943;28;20305;-80
2023/09/27 03:03:30;;;;;;;21.00;11.02;;;;;;;11.44;100.00;101825.31;5093281;28;20025;-79
2023/09/27 03:05:57;;;;;;;21.83;10.80;;;;;;;11.39;100.00;101817.31;5093260;28;20029;-80
2023/09/27 03:08:23;;;;;;;20.33;9.93;;;;;;;11.38;100.00;101815.50;5093070;28;20387;-77
2023/09/27 03:10:48;;;;;;;20.63;9.95;;;;;;;11.39;100.00;101821.69;5093414;28;20034;-79
2023/09/27 03:13:14;;;;;;;20.20;9.93;;;;;;;11.36;100.00;101821.63;5093054;28;20028;-75
2023/09/27 03:15:40;;;;;;;21.30;9.45;;;;;;;11.36;100.00;101822.56;5092882;28;20110;-70
2023/09/27 03:18:06;;;;;;;22.30;10.57;;;;;;;11.38;100.00;101826.09;5092895;28;20028;-80
2023/09/27 03:20:31;;;;;;;20.65;10.80;;;;;;;11.40;100.00;101821.75;5093139;28;20390;-79
2023/09/27 03:22:57;;;;;;;20.55;10.25;;;;;;;11.34;100.00;101818.97;5093357;28;20068;-75
2023/09/27 03:25:22;;;;;;;20.00;9.60;;;;;;;11.33;100.00;101828.69;5092625;28;20044;-79
2023/09/27 03:27:48;;;;;;;20.63;10.00;;;;;;;11.33;100.00;101833.09;5093000;28;20101;-76
2023/09/27 03:30:13;;;;;;;20.42;9.82;;;;;;;11.30;100.00;101828.63;5093038;28;20532;-76
2023/09/27 03:32:39;;;;;;;20.67;9.80;;;;;;;11.28;100.00;101840.94;5092801;28;20059;-80
2023/09/27 03:35:06;;;;;;;20.58;9.63;;;;;;;11.22;100.00;101845.25;5092692;28;20396;-80
2023/09/27 03:37:32;;;;;;;20.00;9.98;;;;;;;11.19;100.00;101851.38;5092897;28;20032;-74
2023/09/27 03:39:57;;;;;;;20.30;9.20;;;;;;;11.16;100.00;101851.31;5092879;28;20028;-80
2023/09/27 03:42:23;;;;;;;20.73;10.65;;;;;;;11.12;100.00;101854.75;5092777;28;20028;-76
2023/09/27 03:44:48;;;;;;;21.08;10.98;;;;;;;11.10;100.00;101852.09;5092853;28;20079;-80
2023/09/27 03:47:15;;;;;;;21.25;11.02;;;;;;;11.16;100.00;101851.31;5092705;28;20443;-64
2023/09/27 03:49:41;;;;;;;22.10;11.77;;;;;;;11.16;100.00;101846.03;5092825;28;20406;-65
2023/09/27 03:52:07;;;;;;;21.63;10.70;;;;;;;11.10;100.00;101830.94;5091442;28;20584;-64
2023/09/27 03:54:32;;;;;;;22.90;12.20;;;;;;;11.08;100.00;101827.38;5092520;28;20032;-65
2023/09/27 03:56:58;;;;;;;21.08;11.57;;;;;;;11.03;100.00;101828.16;5092501;28;20038;-65
2023/09/27 03:59:24;;;;;;;21.20;11.30;;;;;;;10.94;100.00;101832.41;5092759;28;20073;-65
2023/09/27 04:01:49;;;;;;;21.92;12.13;;;;;;;10.90;100.00;101837.59;5092768;28;20043;-65
2023/09/27 04:04:15;;;;;;;20.88;12.02;;;;;;;10.85;100.00;101850.75;5092428;28;20097;-60
2023/09/27 04:06:40;;;;;;;21.13;11.02;;;;;;;10.76;100.00;101856.75;5092692;28;20035;-65
2023/09/27 04:09:07;;;;;;;20.67;10.80;;;;;;;10.78;100.00;101865.59;5092614;28;20023;-65
2023/09/27 04:11:32;;;;;;;20.25;10.50;;;;;;;10.71;100.00;101866.34;5092636;28;20029;-62
2023/09/27 04:13:57;;;;;;;20.77;10.20;;;;;;;10.67;100.00;101874.19;5092277;28;20119;-64
2023/09/27 04:16:23;;;;;;;20.20;10.93;;;;;;;10.69;100.00;101878.66;5091078;28;20129;-65
2023/09/27 04:18:48;;;;;;;20.63;11.10;;;;;;;10.60;100.00;101866.13;5092480;28;20035;-64
2023/09/27 04:21:14;;;;;;;20.67;10.57;;;;;;;10.59;100.00;101851.13;5092543;28;20456;-65
2023/09/27 04:23:41;;;;;;;22.52;12.40;;;;;;;10.66;100.00;101854.78;5091036;28;20376;-65
2023/09/27 04:26:09;;;;;;;21.73;11.60;;;;;;;10.56;100.00;101874.84;5092380;28;20056;-66
2023/09/27 04:28:34;;;;;;;21.02;11.50;;;;;;;10.50;100.00;101880.03;5092402;28;20035;-64
2023/09/27 04:31:00;;;;;;;20.08;10.18;;;;;;;10.46;100.00;101888.75;5096117;28;20024;-65
2023/09/27 04:33:25;;;;;;;20.45;10.32;;;;;;;10.51;100.00;101892.34;5096407;28;20379;-65
2023/09/27 04:35:51;;;;;;;21.17;10.43;;;;;;;10.49;100.00;101885.28;5096025;28;20075;-65
2023/09/27 04:38:16;;;;;;;21.55;10.82;;;;;;;10.53;100.00;101884.47;5096256;28;20036;-65
2023/09/27 04:40:42;;;;;;;20.90;10.25;;;;;;;10.51;100.00;101896.75;5096036;28;20032;-63
2023/09/27 04:43:08;;;;;;;20.63;10.45;;;;;;;10.49;100.00;101893.22;5096134;28;20039;-65
2023/09/27 04:45:33;;;;;;;21.45;10.55;;;;;;;10.46;100.00;101879.03;5095927;28;20028;-63
2023/09/27 04:47:59;;;;;;;20.90;10.73;;;;;;;10.51;100.00;101870.31;5096009;28;20528;-65
2023/09/27 04:50:25;;;;;;;20.45;10.18;;;;;;;10.49;100.00;101845.63;5095793;28;20467;-64
2023/09/27 04:52:51;;;;;;;22.15;11.40;;;;;;;10.45;100.00;101850.81;5095573;28;20024;-65
2023/09/27 04:55:17;;;;;;;21.38;11.18;;;;;;;10.39;100.00;101863.91;5095747;28;20040;-63
2023/09/27 04:57:42;;;;;;;22.10;11.60;;;;;;;10.36;100.00;101871.78;5096014;28;20110;-65
2023/09/27 05:00:18;;;;;;;21.67;10.73;;;;;;;10.38;100.00;101864.81;5094454;28;20119;-65
2023/09/27 05:02:43;;;;;;;20.48;10.52;;;;;;;10.43;100.00;101865.78;5092364;28;20024;-65
2023/09/27 05:05:09;;;;;;;20.80;11.20;;;;;;;10.43;100.00;101867.53;5091353;28;20037;-65
2023/09/27 05:07:34;;;;;;;20.67;11.05;;;;;;;10.43;100.00;101868.41;5095760;28;20025;-63
2023/09/27 05:10:00;;;;;;;21.42;11.65;;;;;;;10.45;100.00;101877.25;5094234;28;20535;-65
2023/09/27 05:12:25;;;;;;;22.17;11.45;;;;;;;10.48;100.00;101875.56;5095366;28;20024;-65
2023/09/27 05:14:50;;;;;;;22.08;12.15;;;;;;;10.57;100.00;101867.81;5095085;28;20036;-65
2023/09/27 05:17:16;;;;;;;23.33;12.23;;;;;;;10.54;100.00;101854.53;5095494;28;20032;-65
2023/09/27 05:19:41;;;;;;;21.45;11.45;;;;;;;10.49;100.00;101851.78;5095233;28;20103;-66
2023/09/27 05:22:08;;;;;;;22.98;11.93;;;;;;;10.45;100.00;101858.75;5095303;28;20483;-80
2023/09/27 05:24:38;;;;;;;22.52;11.05;;;;;;;10.37;100.00;101852.44;5095086;28;20044;-80
2023/09/27 05:27:05;;;;;;;21.65;10.77;;;;;;;10.32;100.00;101847.88;5095139;28;20106;-80
2023/09/27 05:29:31;;;;;;;21.92;11.00;;;;;;;10.30;100.00;101858.41;5095037;28;20074;-80
2023/09/27 05:31:57;;;;;;;21.80;10.68;;;;;;;10.25;100.00;101849.47;5095177;28;20079;-79
2023/09/27 05:34:22;;;;;;;22.52;10.18;;;;;;;10.24;100.00;101863.56;5095105;28;20028;-76
2023/09/27 05:36:48;;;;;;;20.90;10.13;;;;;;;10.26;100.00;101856.56;5095122;28;20035;-81
2023/09/27 05:39:13;;;;;;;20.52;10.30;;;;;;;10.19;100.00;101852.88;5094820;28;20032;-72
2023/09/27 05:41:39;;;;;;;21.70;10.90;;;;;;;10.25;100.00;101857.41;5094761;28;20390;-74
2023/09/27 05:44:04;;;;;;;23.65;10.85;;;;;;;10.24;100.00;101863.56;5092899;28;20353;-62
2023/09/27 05:46:32;;;;;;;21.90;10.70;;;;;;;10.22;100.00;101852.06;5089026;28;20391;-66
2023/09/27 05:48:57;;;;;;;21.27;11.10;;;;;;;10.28;100.00;101842.53;5082476;28;20486;-60
2023/09/27 05:51:23;;;;;;;21.27;11.25;;;;;;;10.28;100.00;101844.25;5084567;28;20056;-60
2023/09/27 05:53:52;;;;;;;22.50;11.90;;;;;;;10.31;100.00;101841.69;5082394;28;20048;-60
2023/09/27 05:56:17;;;;;;;22.90;12.27;;;;;;;10.35;100.00;101840.91;5083724;28;20033;-59
2023/09/27 05:58:43;;;;;;;22.20;11.73;;;;;;;10.41;100.00;101842.81;5084075;28;20367;-60
2023/09/27 06:01:09;;;;;;;23.23;10.85;;;;;;;10.41;100.00;101833.13;5094093;28;20371;-59
2023/09/27 06:03:36;;;;;;;23.75;10.80;;;;;;;10.43;100.00;101839.34;5089275;28;20046;-61
2023/09/27 06:06:03;;;;;;;22.50;11.13;;;;;;;10.41;100.00;101846.34;5089980;28;20088;-60
2023/09/27 06:08:29;;;;;;;23.77;11.98;;;;;;;10.45;100.00;101850.81;5092790;28;20028;-64
2023/09/27 06:10:55;;;;;;;22.75;11.77;;;;;;;10.50;100.00;101839.44;5094560;28;20168;-61
2023/09/27 06:13:21;;;;;;;25.02;12.68;;;;;;;10.57;100.00;101833.44;5094078;28;20024;-60
2023/09/27 06:15:46;;;;;;;23.27;12.45;;;;;;;10.63;100.00;101838.88;5093926;28;20059;-62
2023/09/27 06:18:12;;;;;;;23.48;11.52;;;;;;;10.67;100.00;101845.97;5093917;28;20028;-60
2023/09/27 06:20:38;;;;;;;23.98;11.65;;;;;;;10.85;100.00;101842.81;5094144;28;20024;-60
2023/09/27 06:23:04;;;;;;;22.30;11.70;;;;;;;10.91;100.00;101839.41;5093914;28;20028;-60
2023/09/27 06:25:30;;;;;;;23.45;12.57;;;;;;;11.02;100.00;101835.16;5093733;28;20102;-61
2023/09/27 06:27:57;;;;;;;23.52;11.70;;;;;;;11.06;100.00;101828.19;5090148;28;20038;-60
2023/09/27 06:30:22;;;;;;;24.00;11.98;;;;;;;11.13;100.00;101819.50;5093987;28;20379;-61
2023/09/27 06:32:48;;;;;;;23.13;12.15;;;;;;;11.22;100.00;101824.06;5093551;28;20027;-60
2023/09/27 06:35:14;;;;;;;22.92;12.18;;;;;;;11.32;100.00;101826.00;5093703;28;20040;-61
2023/09/27 06:37:40;;;;;;;25.55;13.30;;;;;;;11.46;100.00;101824.47;5090399;28;20038;-60
2023/09/27 06:40:08;;;;;;;24.60;13.10;;;;;;;11.62;100.00;101820.31;5092337;28;20036;-62
2023/09/27 06:42:33;;;;;;;24.27;12.60;;;;;;;11.83;100.00;101829.47;5093618;28;20059;-63
2023/09/27 06:44:59;;;;;;;24.05;12.77;;;;;;;12.07;100.00;101828.94;5084056;28;20107;-60
2023/09/27 06:47:24;;;;;;;23.00;12.65;;;;;;;12.28;100.00;101831.00;5085137;28;20024;-61
2023/09/27 06:49:51;;;;;;;24.65;13.23;;;;;;;12.52;100.00;101838.38;5079174;28;20414;-60
2023/09/27 06:52:16;;;;;;;24.02;12.70;;;;;;;12.65;100.00;101847.34;5086735;28;20020;-60
2023/09/27 06:54:41;;;;;;;22.35;12.57;;;;;;;12.79;100.00;101854.59;5083484;28;20047;-60
2023/09/27 06:57:06;;;;;;;23.75;12.82;;;;;;;12.87;100.00;101851.16;5083110;28;20093;-60
2023/09/27 06:59:32;;;;;;;22.80;12.50;;;;;;;12.93;100.00;101844.13;5093146;28;20028;-60
2023/09/27 07:01:57;;;;;;;22.95;11.85;;;;;;;13.02;100.00;101850.41;5093211;28;20035;-60
2023/09/27 07:04:22;;;;;;;23.08;12.25;;;;;;;13.12;100.00;101846.09;5093083;28;20031;-61
2023/09/27 07:06:48;;;;;;;22.25;11.77;;;;;;;13.22;100.00;101834.69;5093248;28;20470;-60
2023/09/27 07:09:16;;;;;;;22.40;12.02;;;;;;;13.31;100.00;101832.97;5093083;28;20028;-60
2023/09/27 07:11:44;;;;;;;22.00;12.73;;;;;;;13.34;100.00;101831.28;5089449;28;20502;-61
2023/09/27 07:14:09;;;;;;;22.55;12.75;;;;;;;13.35;100.00;101833.06;5093051;28;20036;-60
2023/09/27 07:16:35;;;;;;;22.27;12.63;;;;;;;13.37;100.00;101839.28;5093056;28;20383;-63
2023/09/27 07:19:00;;;;;;;21.75;12.27;;;;;;;13.42;100.00;101852.59;5082625;28;20036;-64
2023/09/27 07:21:26;;;;;;;22.25;12.65;;;;;;;13.49;100.00;101850.88;5089980;28;20024;-62
2023/09/27 07:23:52;;;;;;;23.80;13.10;;;;;;;13.45;100.00;101849.94;5088631;28;20033;-60
2023/09/27 07:26:18;;;;;;;22.95;12.90;;;;;;;13.43;100.00;101855.25;5092633;28;20056;-61
2023/09/27 07:28:45;;;;;;;22.13;12.30;;;;;;;13.42;100.00;101845.50;5092700;28;20024;-60
2023/09/27 07:31:14;;;;;;;23.08;13.05;;;;;;;13.46;100.00;101841.13;5091676;28;20090;-61
2023/09/27 07:33:40;;;;;;;23.00;13.20;;;;;;;13.48;100.00;101855.28;5092445;28;20492;-62
2023/09/27 07:36:08;;;;;;;23.10;13.32;;;;;;;13.54;100.00;101859.75;5092555;28;20052;-63
2023/09/27 07:38:34;;;;;;;24.42;13.65;;;;;;;13.62;100.00;101865.16;5093053;28;20039;-63
2023/09/27 07:40:59;;;;;;;22.40;13.25;;;;;;;13.73;100.00;101852.81;5092618;28;20032;-61
2023/09/27 07:43:24;;;;;;;23.42;13.88;;;;;;;13.85;100.00;101844.94;5088673;28;20105;-60
2023/09/27 07:45:50;;;;;;;24.02;13.40;;;;;;;14.10;100.00;101847.75;5092769;28;20383;-60
2023/09/27 07:48:16;;;;;;;25.08;13.20;;;;;;;14.29;100.00;101851.41;5092606;28;20028;-59
2023/09/27 07:50:41;;;;;;;23.10;12.88;;;;;;;14.48;100.00;101842.63;5089100;28;20032;-60
2023/09/27 07:53:08;;;;;;;24.40;13.55;;;;;;;14.57;100.00;101849.75;5092563;28;20083;-60
2023/09/27 07:55:43;;;;;;;23.83;13.13;;;;;;;14.81;100.00;101856.97;5092332;28;20055;-60
2023/09/27 07:58:09;;;;;;;24.40;13.82;;;;;;;15.12;100.00;101861.47;5088127;28;20028;-59
2023/09/27 08:00:35;;;;;;;24.50;13.63;;;;;;;15.38;100.00;101841.94;5092609;28;20028;-60
2023/09/27 08:03:01;;;;;;;24.50;13.18;;;;;;;15.61;100.00;101847.25;5075376;28;20032;-60
2023/09/27 08:05:26;;;;;;;24.00;12.32;;;;;;;15.95;100.00;101845.47;5096731;28;20042;-60
2023/09/27 08:07:52;;;;;;;22.40;11.73;;;;;;;16.30;100.00;101840.94;5096526;28;20328;-60
2023/09/27 08:10:18;;;;;;;24.17;12.30;;;;;;;16.44;100.00;101856.88;5096439;28;20028;-60
2023/09/27 08:12:44;;;;;;;22.08;12.07;;;;;;;16.69;100.00;101847.88;5095271;28;20059;-60
2023/09/27 08:15:12;;;;;;;21.52;10.73;;;;;;;16.87;100.00;101848.69;5091885;28;20060;-60
2023/09/27 08:17:38;;;;;;;22.20;10.90;;;;;;;17.23;100.00;101836.88;5096313;28;20043;-60
2023/09/27 08:20:09;;;;;;;21.80;10.90;;;;;;;17.39;100.00;101847.47;5096151;28;20392;-60
2023/09/27 08:22:35;;;;;;;22.05;10.95;;;;;;;17.73;100.00;101858.72;5092896;28;20038;-60
2023/09/27 08:25:02;;;;;;;22.55;10.90;;;;;;;17.96;100.00;101863.00;5094879;28;20044;-60
2023/09/27 08:27:27;;;;;;;22.33;10.80;;;;;;;18.17;100.00;101869.91;5096054;28;20103;-60
2023/09/27 08:29:53;;;;;;;23.52;10.70;;;;;;;18.45;100.00;101870.50;5096118;28;20111;-61
2023/09/27 08:32:18;;;;;;;20.10;10.30;;;;;;;18.90;100.00;101859.22;5095958;28;20062;-61
2023/09/27 08:34:45;;;;;;;20.90;10.20;;;;;;;19.38;100.00;101857.59;5094685;28;20420;-61
2023/09/27 08:37:11;;;;;;;20.85;9.93;;;;;;;20.08;100.00;101854.59;5096196;28;20387;-59
2023/09/27 08:39:38;;;;;;;20.08;9.80;;;;;;;20.55;100.00;101860.81;5094674;28;20027;-61
2023/09/27 08:42:03;;;;;;;21.40;9.90;;;;;;;20.94;100.00;101862.66;5095720;28;20078;-61
2023/09/27 08:44:31;;;;;;;21.88;9.35;;;;;;;21.23;100.00;101864.66;5096000;28;20032;-60
2023/09/27 08:46:57;;;;;;;20.20;9.30;;;;;;;21.27;100.00;101855.59;5091577;28;20443;-60
2023/09/27 08:49:24;;;;;;;20.83;9.68;;;;;;;20.89;100.00;101852.91;5095640;28;20057;-61
2023/09/27 08:51:50;;;;;;;20.65;9.35;;;;;;;20.86;100.00;101835.97;5095732;28;20024;-62
2023/09/27 08:54:17;;;;;;;20.13;9.50;;;;;;;20.88;100.00;101839.50;5095876;28;20436;-60
2023/09/27 08:56:53;;;;;;;20.95;9.60;;;;;;;21.04;100.00;101831.97;5095670;28;20073;-61
2023/09/27 08:59:19;;;;;;;21.50;10.20;;;;;;;21.50;100.00;101838.91;5095753;28;20035;-60
2023/09/27 09:01:46;;;;;;;21.77;9.93;;;;;;;22.05;100.00;101847.34;5095538;28;20028;-61
2023/09/27 09:04:12;;;;;;;22.08;9.40;;;;;;;22.76;100.00;101842.59;5095243;28;20210;-60
2023/09/27 09:06:39;;;;;;;22.58;9.68;;;;;;;23.31;100.00;101842.69;5095596;28;20525;-61
2023/09/27 09:09:10;;;;;;;19.73;9.30;;;;;;;22.72;100.00;101848.16;5095233;28;20082;-62
2023/09/27 09:11:43;;;;;;;19.85;9.50;;;;;;;21.87;100.00;101835.28;5095195;28;20376;-61
2023/09/27 09:14:10;;;;;;;20.75;10.07;;;;;;;21.46;100.00;101817.50;5093444;28;20545;-60
2023/09/27 09:16:47;;;;;;;20.30;9.57;;;;;;;21.50;100.00;101827.28;5094130;28;20066;-60
2023/09/27 09:19:22;;;;;;;20.27;9.90;;;;;;;21.48;100.00;101824.63;5092970;28;20035;-61
2023/09/27 09:21:58;;;;;;;21.58;10.80;;;;;;;21.42;100.00;101830.13;5091395;28;20067;-60
2023/09/27 09:24:24;;;;;;;21.15;10.25;;;;;;;21.31;100.00;101825.03;5092101;28;20079;-61
2023/09/27 09:27:09;;;;;;;22.70;10.98;;;;;;;21.24;100.00;101823.44;5095394;28;20052;-60
2023/09/27 09:29:52;;;;;;;20.17;10.00;;;;;;;21.41;100.00;101825.69;5095216;28;20028;-61
2023/09/27 09:32:22;;;;;;;21.15;9.98;;;;;;;21.47;100.00;101819.28;5091491;28;20024;-61
2023/09/27 09:34:53;;;;;;;21.23;9.60;;;;;;;21.49;100.00;101812.91;5091380;28;20028;-60
2023/09/27 09:37:20;;;;;;;19.90;9.43;;;;;;;21.44;100.00;101814.84;5091415;28;20032;-60
2023/09/27 09:39:47;;;;;;;19.55;8.70;;;;;;;21.28;100.00;101818.88;5090867;28;20040;-62
2023/09/27 09:42:15;;;;;;;19.83;8.95;;;;;;;21.32;100.00;101809.78;5095206;28;20027;-60
2023/09/27 09:44:40;;;;;;;20.27;8.63;;;;;;;21.80;100.00;101804.09;5094649;28;20036;-60
2023/09/27 09:47:11;;;;;;;20.15;8.73;;;;;;;22.16;100.00;101797.69;5094470;28;20069;-62
2023/09/27 09:49:37;;;;;;;20.38;9.23;;;;;;;22.61;100.00;101799.94;5094800;28;20549;-61
2023/09/27 09:52:03;;;;;;;19.92;9.10;;;;;;;22.86;100.00;101797.34;5093902;28;20051;-70
2023/09/27 09:54:47;;;;;;;19.70;9.00;;;;;;;23.19;100.00;101780.19;5094632;28;20379;-69
2023/09/27 09:57:13;;;;;;;19.25;9.30;;;;;;;24.10;100.00;101779.66;5091549;28;20024;-70
2023/09/27 10:00:01;;;;;;;20.90;8.95;;;;;;;24.83;100.00;101781.31;5093074;28;20032;-69
2023/09/27 10:02:27;;;;;;;19.40;9.20;;;;;;;25.17;100.00;101779.91;5093654;28;20040;-71
2023/09/27 10:04:55;;;;;;;18.73;8.50;;;;;;;25.22;100.00;101777.00;5094081;28;20474;-62
2023/09/27 10:07:21;;;;;;;19.80;8.57;;;;;;;25.24;100.00;101769.72;5094346;28;20482;-60
2023/09/27 10:09:49;;;;;;;20.25;9.20;;;;;;;25.14;100.00;101771.94;5092993;28;20028;-63
2023/09/27 10:12:17;;;;;;;19.85;8.80;;;;;;;25.02;100.00;101773.34;5083292;28;20024;-61
2023/09/27 10:14:45;;;;;;;19.75;8.60;;;;;;;24.63;100.00;101781.25;5082927;28;20032;-65
2023/09/27 10:17:21;;;;;;;20.23;9.07;;;;;;;25.13;100.00;101780.97;5083058;28;20025;-60
2023/09/27 10:20:12;;;;;;;20.38;9.00;;;;;;;25.81;100.00;101791.63;5083336;28;20111;-65
2023/09/27 10:22:42;;;;;;;19.42;8.25;;;;;;;26.75;100.00;101800.84;5085657;28;20020;-70
2023/09/27 10:25:26;;;;;;;19.58;8.25;;;;;;;27.24;100.00;101786.63;5083217;28;20052;-62
2023/09/27 10:28:15;;;;;;;19.48;8.48;;;;;;;27.26;100.00;101775.69;5083281;28;20490;-63
2023/09/27 10:30:40;;;;;;;19.65;8.13;;;;;;;27.09;100.00;101761.19;5092178;28;20106;-65
2023/09/27 10:33:14;;;;;;;20.55;8.30;;;;;;;26.60;100.00;101741.91;5093655;28;20062;-67
2023/09/27 10:35:42;;;;;;;19.80;8.13;;;;;;;26.19;100.00;101761.03;5093522;28;20032;-68
2023/09/27 10:38:10;;;;;;;19.85;8.00;;;;;;;26.38;100.00;101764.63;5093758;28;20036;-68
2023/09/27 10:40:46;;;;;;;19.10;8.10;;;;;;;26.93;100.00;101760.22;5093589;28;20021;-60
2023/09/27 10:43:34;;;;;;;19.92;8.48;;;;;;;27.44;100.00;101753.06;5093574;28;20062;-71
2023/09/27 10:45:59;;;;;;;19.50;8.00;;;;;;;27.85;98.50;101745.53;5090105;28;20031;-74
2023/09/27 10:48:25;;;;;;;20.08;8.27;;;;;;;27.71;92.92;101741.69;5094012;28;20035;-64
2023/09/27 10:50:52;;;;;;;20.35;8.45;;;;;;;27.40;94.37;101737.91;5093197;28;20028;-63
2023/09/27 10:53:18;;;;;;;20.20;7.97;;;;;;;27.13;100.00;101721.22;5093299;28;20024;-64
2023/09/27 10:55:44;;;;;;;19.30;7.85;;;;;;;27.04;100.00;101719.84;5089274;28;20031;-64
2023/09/27 10:58:15;;;;;;;18.55;7.90;;;;;;;26.66;100.00;101716.31;5093101;28;20028;-68
2023/09/27 11:00:57;;;;;;;18.83;8.23;;;;;;;26.91;100.00;101716.91;5093349;28;20020;-69
2023/09/27 11:03:29;;;;;;;18.77;7.70;;;;;;;27.39;100.00;101719.88;5090030;28;20016;-61
2023/09/27 11:05:55;;;;;;;;;;;;;;;28.00;100.00;101722.97;5093650;28;20383;-69